createdAt,value
2023-03-26T00:00:44.767Z,4.7
2023-03-26T00:01:45.181Z,4.7
2023-03-26T00:02:45.586Z,4.7
2023-03-26T00:03:46.028Z,4.7
2023-03-26T00:04:46.416Z,4.7
2023-03-26T00:05:47.207Z,4.8
2023-03-26T00:06:47.619Z,4.8
2023-03-26T00:07:47.994Z,4.8
2023-03-26T00:08:48.386Z,4.8
2023-03-26T00:09:48.788Z,4.8
2023-03-26T00:10:49.593Z,4.9
2023-03-26T00:11:50.003Z,4.9
2023-03-26T00:12:50.400Z,4.9
2023-03-26T00:13:50.795Z,4.9
2023-03-26T00:14:51.174Z,4.9
2023-03-26T00:15:51.946Z,5
2023-03-26T00:16:52.530Z,5
2023-03-26T00:17:52.998Z,5
2023-03-26T00:18:53.446Z,5
2023-03-26T00:19:53.844Z,5
2023-03-26T00:20:54.792Z,4.9
2023-03-26T00:21:55.167Z,4.9
2023-03-26T00:22:55.552Z,4.9
2023-03-26T00:23:55.938Z,4.9
2023-03-26T00:24:56.329Z,4.9
2023-03-26T00:25:57.193Z,4.8
2023-03-26T00:26:57.588Z,4.8
2023-03-26T00:27:57.963Z,4.8
2023-03-26T00:28:58.365Z,4.8
2023-03-26T00:29:58.781Z,4.8
2023-03-26T00:30:59.540Z,4.9
2023-03-26T00:31:59.992Z,4.9
2023-03-26T00:33:00.443Z,4.9
2023-03-26T00:34:00.820Z,4.9
2023-03-26T00:35:01.224Z,4.9
2023-03-26T00:36:04.402Z,4.9
2023-03-26T00:37:04.958Z,4.9
2023-03-26T00:38:05.350Z,4.9
2023-03-26T00:39:05.911Z,4.8
2023-03-26T00:40:06.438Z,4.8
2023-03-26T00:41:06.848Z,4.8
2023-03-26T00:42:07.256Z,4.8
2023-03-26T00:43:07.665Z,4.8
2023-03-26T00:44:08.060Z,4.8
2023-03-26T00:45:08.454Z,4.8
2023-03-26T00:46:09.214Z,4.7
2023-03-26T00:47:09.650Z,4.7
2023-03-26T00:48:10.097Z,4.7
2023-03-26T00:49:10.525Z,4.7
2023-03-26T00:50:10.930Z,4.7
2023-03-26T00:51:11.772Z,4.7
2023-03-26T00:52:12.159Z,4.6
2023-03-26T00:53:12.539Z,4.6
2023-03-26T00:54:12.960Z,4.6
2023-03-26T00:55:13.348Z,4.6
2023-03-26T00:56:14.158Z,4.6
2023-03-26T00:57:22.546Z,4.6
2023-03-26T00:58:29.561Z,4.6
2023-03-26T00:59:29.949Z,4.6
2023-03-26T01:00:30.337Z,4.6
2023-03-26T01:01:31.053Z,4.6
2023-03-26T01:02:31.554Z,4.6
2023-03-26T01:03:32.135Z,4.6
2023-03-26T01:04:32.786Z,4.6
2023-03-26T01:05:33.298Z,4.6
2023-03-26T01:06:34.098Z,4.6
2023-03-26T01:07:34.480Z,4.6
2023-03-26T01:08:34.873Z,4.6
2023-03-26T01:09:35.266Z,4.6
2023-03-26T01:10:35.650Z,4.6
2023-03-26T01:11:36.460Z,4.5
2023-03-26T01:12:36.862Z,4.5
2023-03-26T01:13:37.247Z,4.5
2023-03-26T01:14:37.625Z,4.5
2023-03-26T01:15:38.041Z,4.5
2023-03-26T01:16:38.939Z,4.4
2023-03-26T01:17:39.331Z,4.4
2023-03-26T01:18:39.735Z,4.4
2023-03-26T01:19:40.130Z,4.4
2023-03-26T01:20:40.533Z,4.4
2023-03-26T01:21:41.223Z,4.3
2023-03-26T01:22:41.603Z,4.3
2023-03-26T01:23:41.986Z,4.3
2023-03-26T01:24:42.381Z,4.3
2023-03-26T01:25:42.776Z,4.3
2023-03-26T01:26:43.496Z,4.2
2023-03-26T01:27:43.888Z,4.2
2023-03-26T01:28:44.262Z,4.2
2023-03-26T01:29:44.668Z,4.2
2023-03-26T01:30:45.058Z,4.2
2023-03-26T01:31:45.716Z,4.2
2023-03-26T01:32:46.161Z,4.2
2023-03-26T01:33:46.640Z,4.2
2023-03-26T01:34:47.125Z,4.2
2023-03-26T01:35:47.578Z,4.2
2023-03-26T01:36:48.332Z,4.2
2023-03-26T01:37:48.708Z,4.2
2023-03-26T01:38:49.098Z,4.2
2023-03-26T01:39:49.520Z,4.2
2023-03-26T01:40:49.921Z,4.2
2023-03-26T01:41:50.686Z,4.1
2023-03-26T01:42:51.058Z,4.1
2023-03-26T01:43:51.450Z,4.1
2023-03-26T01:44:51.846Z,4.1
2023-03-26T01:45:52.510Z,4.1
2023-03-26T01:46:53.666Z,4.1
2023-03-26T01:47:54.105Z,4.1
2023-03-26T01:48:54.510Z,4.1
2023-03-26T01:49:54.917Z,4
2023-03-26T01:50:55.319Z,4
2023-03-26T01:51:56.118Z,4
2023-03-26T01:52:56.512Z,4
2023-03-26T01:53:56.889Z,4
2023-03-26T01:54:57.286Z,4
2023-03-26T01:55:57.677Z,4
2023-03-26T01:56:58.637Z,4
2023-03-26T01:57:59.092Z,4
2023-03-26T01:58:59.473Z,4
2023-03-26T01:59:59.857Z,4
2023-03-26T02:01:00.419Z,4
2023-03-26T02:02:01.410Z,4
2023-03-26T02:03:01.956Z,4
2023-03-26T02:04:02.400Z,4
2023-03-26T02:05:02.779Z,3.9
2023-03-26T02:06:03.157Z,3.9
2023-03-26T02:07:03.990Z,3.9
2023-03-26T02:08:04.425Z,4
2023-03-26T02:09:04.814Z,3.9
2023-03-26T02:10:05.185Z,3.9
2023-03-26T02:11:05.571Z,4
2023-03-26T02:12:06.302Z,3.9
2023-03-26T02:13:06.695Z,4
2023-03-26T02:14:07.088Z,4
2023-03-26T02:15:07.489Z,4
2023-03-26T02:16:07.895Z,4
2023-03-26T02:17:08.709Z,4
2023-03-26T02:18:09.081Z,4
2023-03-26T02:19:09.458Z,3.9
2023-03-26T02:20:09.847Z,3.9
2023-03-26T02:21:10.261Z,3.9
2023-03-26T02:22:11.291Z,3.9
2023-03-26T02:23:11.768Z,3.9
2023-03-26T02:24:12.175Z,3.9
2023-03-26T02:25:12.568Z,3.9
2023-03-26T02:26:12.945Z,3.9
2023-03-26T02:27:13.640Z,3.9
2023-03-26T02:28:14.202Z,3.9
2023-03-26T02:29:14.583Z,3.9
2023-03-26T02:30:14.972Z,3.9
2023-03-26T02:31:15.402Z,3.9
2023-03-26T02:32:16.259Z,3.9
2023-03-26T02:33:16.642Z,3.9
2023-03-26T02:34:17.024Z,3.9
2023-03-26T02:35:17.501Z,3.9
2023-03-26T02:36:18.078Z,4
2023-03-26T02:37:19.117Z,4
2023-03-26T02:38:19.529Z,3.9
2023-03-26T02:39:19.903Z,3.9
2023-03-26T02:40:20.287Z,4
2023-03-26T02:41:20.687Z,4
2023-03-26T02:42:21.351Z,4
2023-03-26T02:43:21.736Z,4
2023-03-26T02:44:22.137Z,4
2023-03-26T02:45:22.515Z,4
2023-03-26T02:46:23.043Z,4
2023-03-26T02:47:23.552Z,4
2023-03-26T02:48:23.990Z,4
2023-03-26T02:49:24.372Z,4
2023-03-26T02:50:24.831Z,4
2023-03-26T02:51:25.210Z,4
2023-03-26T02:52:25.677Z,4
2023-03-26T02:53:26.057Z,4
2023-03-26T02:54:26.467Z,4
2023-03-26T02:55:26.854Z,4
2023-03-26T02:56:27.233Z,4
2023-03-26T02:57:27.640Z,4
2023-03-26T02:58:28.012Z,4
2023-03-26T02:59:28.391Z,4.1
2023-03-26T03:00:28.787Z,4.1
2023-03-26T03:01:29.240Z,4.1
2023-03-26T03:02:29.847Z,4.1
2023-03-26T03:03:30.379Z,4.1
2023-03-26T03:04:30.931Z,4.1
2023-03-26T03:05:31.341Z,4.1
2023-03-26T03:06:31.739Z,4.1
2023-03-26T03:07:32.168Z,4.1
2023-03-26T03:08:32.521Z,4.1
2023-03-26T03:09:32.916Z,4.1
2023-03-26T03:10:33.298Z,4.2
2023-03-26T03:11:33.693Z,4.2
2023-03-26T03:12:34.477Z,4.2
2023-03-26T03:13:34.862Z,4.2
2023-03-26T03:14:35.264Z,4.2
2023-03-26T03:15:35.647Z,4.2
2023-03-26T03:16:36.035Z,4.2
2023-03-26T03:17:36.874Z,4.2
2023-03-26T03:18:37.287Z,4.2
2023-03-26T03:19:37.679Z,4.2
2023-03-26T03:20:38.068Z,4.2
2023-03-26T03:21:38.448Z,4.3
2023-03-26T03:22:39.150Z,4.3
2023-03-26T03:23:39.535Z,4.3
2023-03-26T03:24:39.920Z,4.3
2023-03-26T03:25:40.316Z,4.3
2023-03-26T03:26:40.715Z,4.3
2023-03-26T03:27:41.372Z,4.3
2023-03-26T03:28:41.778Z,4.3
2023-03-26T03:29:42.166Z,4.3
2023-03-26T03:30:42.574Z,4.4
2023-03-26T03:31:42.987Z,4.4
2023-03-26T03:32:43.748Z,4.4
2023-03-26T03:33:44.216Z,4.4
2023-03-26T03:34:44.601Z,4.4
2023-03-26T03:35:45.063Z,4.4
2023-03-26T03:36:45.448Z,4.4
2023-03-26T03:37:46.159Z,4.4
2023-03-26T03:38:46.542Z,4.4
2023-03-26T03:39:46.925Z,4.3
2023-03-26T03:40:47.324Z,4.3
2023-03-26T03:41:47.720Z,4.3
2023-03-26T03:42:48.405Z,4.3
2023-03-26T03:43:48.802Z,4.3
2023-03-26T03:44:49.207Z,4.3
2023-03-26T03:45:49.592Z,4.3
2023-03-26T03:46:50.005Z,4.4
2023-03-26T03:47:50.725Z,4.4
2023-03-26T03:48:51.140Z,4.4
2023-03-26T03:49:51.504Z,4.4
2023-03-26T03:50:51.918Z,4.4
2023-03-26T03:51:52.286Z,4.4
2023-03-26T03:52:52.982Z,4.4
2023-03-26T03:53:53.364Z,4.4
2023-03-26T03:54:53.737Z,4.4
2023-03-26T03:55:54.426Z,4.4
2023-03-26T03:56:55.067Z,4.4
2023-03-26T03:57:55.788Z,4.4
2023-03-26T03:58:56.169Z,4.3
2023-03-26T03:59:56.575Z,4.3
2023-03-26T04:00:56.939Z,4.3
2023-03-26T04:01:57.311Z,4.3
2023-03-26T04:02:58.051Z,4.2
2023-03-26T04:03:58.606Z,4.2
2023-03-26T04:04:59.032Z,4.2
2023-03-26T04:05:59.438Z,4.2
2023-03-26T04:06:59.849Z,4.2
2023-03-26T04:08:00.600Z,4.2
2023-03-26T04:09:00.965Z,4.2
2023-03-26T04:10:01.357Z,4.2
2023-03-26T04:11:01.757Z,4.2
2023-03-26T04:12:02.153Z,4.1
2023-03-26T04:13:02.841Z,4.1
2023-03-26T04:14:03.240Z,4.1
2023-03-26T04:15:03.741Z,4.1
2023-03-26T04:16:04.160Z,4.1
2023-03-26T04:17:04.562Z,4.1
2023-03-26T04:18:05.270Z,4.1
2023-03-26T04:19:05.706Z,4.1
2023-03-26T04:20:06.104Z,4.1
2023-03-26T04:21:06.476Z,4.1
2023-03-26T04:22:06.864Z,4.1
2023-03-26T04:23:07.648Z,4.1
2023-03-26T04:24:08.030Z,4.1
2023-03-26T04:25:08.428Z,4
2023-03-26T04:26:08.838Z,4
2023-03-26T04:27:09.195Z,4
2023-03-26T04:28:10.023Z,4
2023-03-26T04:29:10.391Z,4
2023-03-26T04:30:10.781Z,4
2023-03-26T04:31:11.216Z,4
2023-03-26T04:32:11.664Z,4
2023-03-26T04:33:12.069Z,3.9
2023-03-26T04:34:12.458Z,3.9
2023-03-26T04:35:12.860Z,3.9
2023-03-26T04:36:13.262Z,3.9
2023-03-26T04:37:13.747Z,3.8
2023-03-26T04:38:14.586Z,3.8
2023-03-26T04:39:14.973Z,3.8
2023-03-26T04:40:15.394Z,3.8
2023-03-26T04:41:15.807Z,3.8
2023-03-26T04:42:16.193Z,3.8
2023-03-26T04:43:16.989Z,3.8
2023-03-26T04:44:17.347Z,3.8
2023-03-26T04:45:17.881Z,3.8
2023-03-26T04:46:18.374Z,3.8
2023-03-26T04:47:18.839Z,3.8
2023-03-26T04:48:19.545Z,3.8
2023-03-26T04:49:19.934Z,3.7
2023-03-26T04:50:20.324Z,3.7
2023-03-26T04:51:20.728Z,3.7
2023-03-26T04:52:21.120Z,3.7
2023-03-26T04:53:21.713Z,3.7
2023-03-26T04:54:22.111Z,3.7
2023-03-26T04:55:22.495Z,3.7
2023-03-26T04:56:22.880Z,3.7
2023-03-26T04:57:23.268Z,3.7
2023-03-26T04:58:24.128Z,3.7
2023-03-26T04:59:24.535Z,3.7
2023-03-26T05:00:24.929Z,3.7
2023-03-26T05:01:25.337Z,3.7
2023-03-26T05:02:26.027Z,3.7
2023-03-26T05:03:26.837Z,3.7
2023-03-26T05:04:27.242Z,3.7
2023-03-26T05:05:27.622Z,3.7
2023-03-26T05:06:28.000Z,3.7
2023-03-26T05:07:28.386Z,3.7
2023-03-26T05:08:29.073Z,3.7
2023-03-26T05:09:29.452Z,3.6
2023-03-26T05:10:29.843Z,3.6
2023-03-26T05:11:30.223Z,3.6
2023-03-26T05:12:30.644Z,3.6
2023-03-26T05:13:31.464Z,3.6
2023-03-26T05:14:31.810Z,3.6
2023-03-26T05:15:32.182Z,3.6
2023-03-26T05:16:32.566Z,3.6
2023-03-26T05:17:32.974Z,3.7
2023-03-26T05:18:33.692Z,3.7
2023-03-26T05:19:34.088Z,3.7
2023-03-26T05:20:34.703Z,3.7
2023-03-26T05:21:35.095Z,3.7
2023-03-26T05:22:37.826Z,3.7
2023-03-26T05:23:38.857Z,3.7
2023-03-26T05:24:39.248Z,3.7
2023-03-26T05:25:39.708Z,3.7
2023-03-26T05:26:40.104Z,3.7
2023-03-26T05:27:40.505Z,3.7
2023-03-26T05:28:41.205Z,3.7
2023-03-26T05:29:41.594Z,3.7
2023-03-26T05:30:41.990Z,3.7
2023-03-26T05:31:42.388Z,3.7
2023-03-26T05:32:42.857Z,3.7
2023-03-26T05:33:43.782Z,3.7
2023-03-26T05:34:44.285Z,3.7
2023-03-26T05:35:44.733Z,3.7
2023-03-26T05:36:45.152Z,3.7
2023-03-26T05:37:45.576Z,3.7
2023-03-26T05:38:46.259Z,3.7
2023-03-26T05:39:46.635Z,3.8
2023-03-26T05:40:47.030Z,3.8
2023-03-26T05:41:47.411Z,3.8
2023-03-26T05:42:47.788Z,3.8
2023-03-26T05:43:48.517Z,3.8
2023-03-26T05:44:48.897Z,3.8
2023-03-26T05:45:49.317Z,3.8
2023-03-26T05:46:49.724Z,3.8
2023-03-26T05:47:50.135Z,3.8
2023-03-26T05:48:50.946Z,3.8
2023-03-26T05:49:51.373Z,3.9
2023-03-26T05:50:51.842Z,3.9
2023-03-26T05:51:53.754Z,3.9
2023-03-26T05:52:55.794Z,3.9
2023-03-26T05:53:56.481Z,3.9
2023-03-26T05:54:56.854Z,3.9
2023-03-26T05:55:57.252Z,3.9
2023-03-26T05:56:57.688Z,3.9
2023-03-26T05:57:58.129Z,3.9
2023-03-26T05:58:58.815Z,3.9
2023-03-26T05:59:59.206Z,4
2023-03-26T06:00:59.609Z,4
2023-03-26T06:02:00.042Z,4
2023-03-26T06:03:00.685Z,4
2023-03-26T06:04:01.600Z,4
2023-03-26T06:05:02.092Z,4
2023-03-26T06:06:02.476Z,4
2023-03-26T06:07:02.870Z,4
2023-03-26T06:08:03.252Z,4
2023-03-26T06:09:04.103Z,4
2023-03-26T06:10:04.473Z,4
2023-03-26T06:11:04.859Z,4
2023-03-26T06:12:05.245Z,4
2023-03-26T06:13:05.702Z,4
2023-03-26T06:14:06.464Z,4
2023-03-26T06:15:06.876Z,4
2023-03-26T06:16:07.285Z,4
2023-03-26T06:17:07.695Z,4
2023-03-26T06:18:08.144Z,4
2023-03-26T06:19:08.732Z,3.9
2023-03-26T06:20:09.659Z,3.9
2023-03-26T06:21:10.099Z,3.9
2023-03-26T06:22:10.489Z,3.9
2023-03-26T06:23:10.875Z,3.9
2023-03-26T06:24:11.605Z,3.9
2023-03-26T06:25:12.001Z,3.9
2023-03-26T06:26:12.400Z,3.9
2023-03-26T06:27:12.791Z,3.9
2023-03-26T06:28:13.190Z,3.9
2023-03-26T06:29:14.178Z,3.9
2023-03-26T06:30:14.549Z,3.9
2023-03-26T06:31:14.962Z,3.9
2023-03-26T06:32:20.068Z,3.8
2023-03-26T06:33:23.477Z,3.8
2023-03-26T06:34:24.994Z,3.8
2023-03-26T06:35:25.376Z,3.8
2023-03-26T06:36:25.751Z,3.8
2023-03-26T06:37:26.134Z,3.8
2023-03-26T06:38:26.518Z,3.8
2023-03-26T06:39:27.200Z,3.8
2023-03-26T06:40:27.578Z,3.8
2023-03-26T06:41:27.968Z,3.8
2023-03-26T06:43:08.225Z,3.8
2023-03-26T06:44:10.943Z,3.8
2023-03-26T06:45:11.707Z,3.8
2023-03-26T06:46:12.139Z,3.9
2023-03-26T06:47:12.595Z,3.9
2023-03-26T06:48:12.976Z,3.9
2023-03-26T06:49:13.366Z,3.9
2023-03-26T06:50:14.206Z,3.9
2023-03-26T06:51:14.589Z,3.9
2023-03-26T06:52:15.007Z,3.9
2023-03-26T06:53:15.409Z,3.9
2023-03-26T06:54:15.776Z,3.9
2023-03-26T06:55:16.495Z,3.9
2023-03-26T06:56:16.913Z,3.9
2023-03-26T06:57:17.311Z,3.9
2023-03-26T06:58:17.696Z,3.9
2023-03-26T06:59:18.127Z,3.9
2023-03-26T07:00:18.830Z,3.9
2023-03-26T07:01:19.281Z,3.9
2023-03-26T07:02:19.768Z,3.9
2023-03-26T07:03:20.199Z,3.9
2023-03-26T07:04:20.644Z,3.9
2023-03-26T07:05:21.365Z,4
2023-03-26T07:06:23.117Z,3.9
2023-03-26T07:07:23.507Z,3.9
2023-03-26T07:08:25.871Z,3.8
2023-03-26T07:09:26.857Z,3.8
2023-03-26T07:10:27.537Z,3.8
2023-03-26T07:11:27.920Z,3.8
2023-03-26T07:12:28.292Z,3.8
2023-03-26T07:13:28.672Z,3.8
2023-03-26T07:14:29.062Z,3.8
2023-03-26T07:15:29.751Z,3.8
2023-03-26T07:16:30.187Z,3.8
2023-03-26T07:17:30.701Z,3.8
2023-03-26T07:18:31.091Z,3.8
2023-03-26T07:19:31.510Z,3.8
2023-03-26T07:20:32.302Z,3.8
2023-03-26T07:21:32.695Z,3.8
2023-03-26T07:22:33.090Z,3.8
2023-03-26T07:23:33.480Z,3.8
2023-03-26T07:24:33.859Z,3.8
2023-03-26T07:25:34.638Z,3.8
2023-03-26T07:26:35.002Z,3.8
2023-03-26T07:27:35.390Z,3.8
2023-03-26T07:28:35.806Z,3.8
2023-03-26T07:29:36.207Z,3.8
2023-03-26T07:30:36.975Z,3.8
2023-03-26T07:31:37.388Z,3.8
2023-03-26T07:32:37.820Z,3.8
2023-03-26T07:33:38.228Z,3.8
2023-03-26T07:34:38.611Z,3.8
2023-03-26T07:35:39.054Z,3.8
2023-03-26T07:36:39.488Z,3.8
2023-03-26T07:37:39.874Z,3.8
2023-03-26T07:38:40.319Z,3.8
2023-03-26T07:39:40.741Z,3.8
2023-03-26T07:40:41.452Z,3.8
2023-03-26T07:41:41.860Z,3.8
2023-03-26T07:42:42.261Z,3.8
2023-03-26T07:43:42.654Z,3.8
2023-03-26T07:44:43.054Z,3.8
2023-03-26T07:45:44.020Z,3.8
2023-03-26T07:46:44.482Z,3.8
2023-03-26T07:47:44.940Z,3.8
2023-03-26T07:48:45.325Z,3.8
2023-03-26T07:49:45.700Z,3.8
2023-03-26T07:50:46.452Z,3.8
2023-03-26T07:51:46.822Z,3.8
2023-03-26T07:52:47.203Z,3.8
2023-03-26T07:53:47.578Z,3.8
2023-03-26T07:54:47.963Z,3.8
2023-03-26T07:55:48.673Z,3.8
2023-03-26T07:56:49.239Z,3.8
2023-03-26T07:57:49.705Z,3.8
2023-03-26T07:58:50.049Z,3.8
2023-03-26T07:59:50.429Z,3.8
2023-03-26T08:00:51.384Z,3.8
2023-03-26T08:01:51.770Z,3.8
2023-03-26T08:02:52.216Z,3.8
2023-03-26T08:03:52.773Z,3.9
2023-03-26T08:04:53.368Z,3.9
2023-03-26T08:05:54.255Z,3.9
2023-03-26T08:06:54.667Z,3.9
2023-03-26T08:07:55.058Z,3.9
2023-03-26T08:08:55.548Z,3.9
2023-03-26T08:09:55.942Z,3.9
2023-03-26T08:10:56.881Z,3.9
2023-03-26T08:11:57.446Z,3.9
2023-03-26T08:12:57.825Z,3.9
2023-03-26T08:13:58.256Z,3.9
2023-03-26T08:14:58.602Z,3.9
2023-03-26T08:15:59.318Z,3.9
2023-03-26T08:16:59.723Z,3.9
2023-03-26T08:18:00.187Z,3.9
2023-03-26T08:19:00.700Z,3.9
2023-03-26T08:20:01.062Z,3.9
2023-03-26T08:21:01.859Z,3.9
2023-03-26T08:22:02.259Z,3.9
2023-03-26T08:23:02.642Z,3.9
2023-03-26T08:24:03.058Z,3.9
2023-03-26T08:25:03.439Z,3.9
2023-03-26T08:26:04.290Z,3.9
2023-03-26T08:27:04.687Z,3.9
2023-03-26T08:28:05.064Z,3.9
2023-03-26T08:29:05.462Z,3.9
2023-03-26T08:30:05.838Z,3.9
2023-03-26T08:31:06.620Z,3.9
2023-03-26T08:32:07.032Z,3.9
2023-03-26T08:33:07.450Z,3.9
2023-03-26T08:34:07.847Z,3.9
2023-03-26T08:35:08.234Z,3.9
2023-03-26T08:36:08.625Z,3.9
2023-03-26T08:37:09.014Z,3.9
2023-03-26T08:38:09.390Z,3.9
2023-03-26T08:39:09.774Z,3.9
2023-03-26T08:40:10.163Z,3.9
2023-03-26T08:41:11.010Z,3.9
2023-03-26T08:42:11.385Z,3.9
2023-03-26T08:43:11.788Z,3.9
2023-03-26T08:44:12.204Z,3.9
2023-03-26T08:45:12.603Z,3.9
2023-03-26T08:46:13.440Z,3.9
2023-03-26T08:47:13.861Z,3.9
2023-03-26T08:48:14.232Z,3.9
2023-03-26T08:49:14.638Z,3.9
2023-03-26T08:50:15.034Z,3.9
2023-03-26T08:51:15.825Z,3.9
2023-03-26T08:52:16.231Z,3.9
2023-03-26T08:53:16.624Z,3.9
2023-03-26T08:54:17.000Z,3.9
2023-03-26T08:55:17.406Z,3.9
2023-03-26T08:56:18.224Z,3.9
2023-03-26T08:57:18.572Z,3.9
2023-03-26T08:58:18.954Z,3.9
2023-03-26T08:59:19.340Z,3.9
2023-03-26T09:00:19.724Z,3.9
2023-03-26T09:01:20.566Z,3.9
2023-03-26T09:02:20.976Z,3.9
2023-03-26T09:03:21.389Z,3.9
2023-03-26T09:04:21.787Z,3.9
2023-03-26T09:05:22.176Z,3.9
2023-03-26T09:06:24.820Z,3.9
2023-03-26T09:07:25.754Z,3.9
2023-03-26T09:08:26.146Z,3.9
2023-03-26T09:09:30.576Z,3.9
2023-03-26T09:10:30.966Z,3.9
2023-03-26T09:11:31.773Z,3.9
2023-03-26T09:12:32.114Z,3.9
2023-03-26T09:13:32.509Z,3.8
2023-03-26T09:14:32.901Z,3.8
2023-03-26T09:15:33.388Z,3.8
2023-03-26T09:16:34.173Z,3.8
2023-03-26T09:17:34.639Z,3.7
2023-03-26T09:18:35.038Z,3.7
2023-03-26T09:19:35.457Z,3.7
2023-03-26T09:20:35.853Z,3.6
2023-03-26T09:21:36.709Z,3.6
2023-03-26T09:22:37.101Z,3.6
2023-03-26T09:23:37.503Z,3.6
2023-03-26T09:24:37.953Z,3.6
2023-03-26T09:25:38.821Z,3.5
2023-03-26T09:26:39.523Z,3.6
2023-03-26T09:27:39.902Z,3.6
2023-03-26T09:28:40.291Z,3.5
2023-03-26T09:29:40.672Z,3.6
2023-03-26T09:30:41.051Z,3.5
2023-03-26T09:31:41.951Z,3.5
2023-03-26T09:32:42.427Z,3.5
2023-03-26T09:33:42.835Z,3.5
2023-03-26T09:34:43.224Z,3.5
2023-03-26T09:35:43.658Z,3.5
2023-03-26T09:36:44.146Z,3.5
2023-03-26T09:37:57.101Z,3.5
2023-03-26T09:38:58.801Z,3.4
2023-03-26T09:39:59.183Z,3.5
2023-03-26T09:41:00.034Z,3.5
2023-03-26T09:42:00.759Z,3.5
2023-03-26T09:43:01.147Z,3.5
2023-03-26T09:44:01.553Z,3.5
2023-03-26T09:45:01.979Z,3.5
2023-03-26T09:46:02.393Z,3.5
2023-03-26T09:47:03.231Z,3.5
2023-03-26T09:48:03.670Z,3.4
2023-03-26T09:49:04.063Z,3.4
2023-03-26T09:50:04.444Z,3.4
2023-03-26T09:51:04.844Z,3.4
2023-03-26T09:52:05.617Z,3.4
2023-03-26T09:53:06.013Z,3.4
2023-03-26T09:54:06.437Z,3.4
2023-03-26T09:55:07.041Z,3.4
2023-03-26T09:56:07.502Z,3.4
2023-03-26T09:57:08.313Z,3.4
2023-03-26T09:58:08.761Z,3.4
2023-03-26T09:59:09.213Z,3.4
2023-03-26T10:00:09.591Z,3.5
2023-03-26T10:01:10.090Z,3.4
2023-03-26T10:02:10.806Z,3.4
2023-03-26T10:03:11.235Z,3.4
2023-03-26T10:04:11.639Z,3.3
2023-03-26T10:05:12.080Z,3.3
2023-03-26T10:06:12.486Z,3.3
2023-03-26T10:07:13.415Z,3.4
2023-03-26T10:08:13.810Z,3.4
2023-03-26T10:09:14.199Z,3.4
2023-03-26T10:10:14.589Z,3.4
2023-03-26T10:11:15.447Z,3.5
2023-03-26T10:12:16.137Z,3.5
2023-03-26T10:13:16.529Z,3.5
2023-03-26T10:14:16.974Z,3.5
2023-03-26T10:15:17.371Z,3.5
2023-03-26T10:16:17.780Z,3.6
2023-03-26T10:17:18.447Z,3.6
2023-03-26T10:18:26.702Z,3.6
2023-03-26T10:19:28.678Z,3.6
2023-03-26T10:20:29.085Z,3.6
2023-03-26T10:21:29.475Z,3.6
2023-03-26T10:22:29.911Z,3.6
2023-03-26T10:23:30.300Z,3.7
2023-03-26T10:24:30.681Z,3.7
2023-03-26T10:25:31.055Z,3.7
2023-03-26T10:26:31.750Z,3.7
2023-03-26T10:27:32.435Z,3.7
2023-03-26T10:28:32.836Z,3.7
2023-03-26T10:29:33.225Z,3.7
2023-03-26T10:30:33.641Z,3.7
2023-03-26T10:31:34.061Z,3.8
2023-03-26T10:32:34.802Z,3.8
2023-03-26T10:33:35.209Z,3.8
2023-03-26T10:34:35.584Z,3.8
2023-03-26T10:35:36.011Z,3.8
2023-03-26T10:36:36.415Z,3.8
2023-03-26T10:37:36.825Z,3.8
2023-03-26T10:38:37.195Z,3.8
2023-03-26T10:39:39.447Z,3.9
2023-03-26T10:40:41.062Z,3.9
2023-03-26T10:41:41.842Z,3.9
2023-03-26T10:42:42.532Z,4
2023-03-26T10:43:42.902Z,4
2023-03-26T10:44:43.309Z,4
2023-03-26T10:45:43.700Z,3.9
2023-03-26T10:46:44.081Z,3.9
2023-03-26T10:47:44.896Z,4
2023-03-26T10:48:45.312Z,3.9
2023-03-26T10:49:45.708Z,4
2023-03-26T10:50:46.091Z,4
2023-03-26T10:51:46.470Z,4
2023-03-26T10:52:47.309Z,4.1
2023-03-26T10:53:47.713Z,4.1
2023-03-26T10:54:48.083Z,4.1
2023-03-26T10:55:48.498Z,4.1
2023-03-26T10:56:49.363Z,4.1
2023-03-26T10:57:50.148Z,4.1
2023-03-26T10:58:50.664Z,4.2
2023-03-26T10:59:51.082Z,4.1
2023-03-26T11:00:51.467Z,4.1
2023-03-26T11:01:51.900Z,4.1
2023-03-26T11:02:52.774Z,4.1
2023-03-26T11:03:53.190Z,4.2
2023-03-26T11:04:53.566Z,4.2
2023-03-26T11:05:54.058Z,4.2
2023-03-26T11:06:54.492Z,4.2
2023-03-26T11:07:55.166Z,4.3
2023-03-26T11:08:55.564Z,4.3
2023-03-26T11:09:55.942Z,4.3
2023-03-26T11:10:56.490Z,4.3
2023-03-26T11:11:57.475Z,4.3
2023-03-26T11:12:58.152Z,4.3
2023-03-26T11:13:58.536Z,4.3
2023-03-26T11:14:58.930Z,4.3
2023-03-26T11:15:59.337Z,4.3
2023-03-26T11:16:59.719Z,4.2
2023-03-26T11:18:00.439Z,4.3
2023-03-26T11:19:00.847Z,4.3
2023-03-26T11:20:01.214Z,4.3
2023-03-26T11:21:19.184Z,4.3
2023-03-26T11:22:20.826Z,4.3
2023-03-26T11:23:21.472Z,4.3
2023-03-26T11:24:21.878Z,4.3
2023-03-26T11:25:22.277Z,4.4
2023-03-26T11:26:22.660Z,4.4
2023-03-26T11:27:25.042Z,4.4
2023-03-26T11:28:27.130Z,4.4
2023-03-26T11:29:31.555Z,4.4
2023-03-26T11:30:33.423Z,4.4
2023-03-26T11:31:33.845Z,4.4
2023-03-26T11:32:34.300Z,4.5
2023-03-26T11:33:35.281Z,4.5
2023-03-26T11:34:35.700Z,4.5
2023-03-26T11:35:40.540Z,4.5
2023-03-26T11:36:41.904Z,4.5
2023-03-26T11:37:42.273Z,4.5
2023-03-26T11:38:42.994Z,4.6
2023-03-26T11:39:43.377Z,4.6
2023-03-26T11:40:43.769Z,4.6
2023-03-26T11:41:44.150Z,4.7
2023-03-26T11:42:44.869Z,4.7
2023-03-26T11:43:45.733Z,4.7
2023-03-26T11:44:46.114Z,4.7
2023-03-26T11:45:46.524Z,4.6
2023-03-26T11:46:46.931Z,4.7
2023-03-26T11:47:47.401Z,4.7
2023-03-26T11:48:48.243Z,4.7
2023-03-26T11:49:48.623Z,4.8
2023-03-26T11:50:49.008Z,4.8
2023-03-26T11:51:49.389Z,4.8
2023-03-26T11:52:49.792Z,4.8
2023-03-26T11:53:50.486Z,4.8
2023-03-26T11:54:50.924Z,4.8
2023-03-26T11:55:51.367Z,4.8
2023-03-26T11:57:05.568Z,4.8
2023-03-26T11:58:07.344Z,4.8
2023-03-26T11:59:08.161Z,4.8
2023-03-26T12:00:08.558Z,4.8
2023-03-26T12:01:08.954Z,4.7
2023-03-26T12:02:09.374Z,4.7
2023-03-26T12:03:09.924Z,4.7
2023-03-26T12:04:10.754Z,4.7
2023-03-26T12:05:11.153Z,4.7
2023-03-26T12:06:11.567Z,4.7
2023-03-26T12:07:11.959Z,4.7
2023-03-26T12:08:12.371Z,4.8
2023-03-26T12:09:13.092Z,4.8
2023-03-26T12:10:18.785Z,4.7
2023-03-26T12:11:19.749Z,4.8
2023-03-26T12:12:20.138Z,4.8
2023-03-26T12:13:20.974Z,4.7
2023-03-26T12:14:21.747Z,4.7
2023-03-26T12:15:22.138Z,4.7
2023-03-26T12:16:22.587Z,4.7
2023-03-26T12:17:31.399Z,4.7
2023-03-26T12:18:32.360Z,4.7
2023-03-26T12:19:33.055Z,4.7
2023-03-26T12:20:33.445Z,4.7
2023-03-26T12:21:33.834Z,4.7
2023-03-26T12:22:34.251Z,4.7
2023-03-26T12:23:34.625Z,4.7
2023-03-26T12:24:35.301Z,4.7
2023-03-26T12:25:35.682Z,4.7
2023-03-26T12:26:36.101Z,4.7
2023-03-26T12:27:36.499Z,4.7
2023-03-26T12:28:37.179Z,4.7
2023-03-26T12:29:37.981Z,4.7
2023-03-26T12:30:38.373Z,4.7
2023-03-26T12:31:38.778Z,4.6
2023-03-26T12:32:46.101Z,4.6
2023-03-26T12:33:47.389Z,4.6
2023-03-26T12:34:48.073Z,4.6
2023-03-26T12:35:48.527Z,4.6
2023-03-26T12:36:48.932Z,4.5
2023-03-26T12:37:49.323Z,4.5
2023-03-26T12:39:16.243Z,4.5
2023-03-26T12:40:43.752Z,4.5
2023-03-26T12:44:42.209Z,4.5
2023-03-26T12:46:03.716Z,4.6
2023-03-26T12:48:54.746Z,4.6
2023-03-26T12:49:55.237Z,4.6
2023-03-26T12:50:55.797Z,4.6
2023-03-26T12:51:56.772Z,4.6
2023-03-26T12:52:57.152Z,4.6
2023-03-26T12:53:57.546Z,4.6
2023-03-26T12:54:57.892Z,4.6
2023-03-26T12:55:58.270Z,4.6
2023-03-26T12:57:12.045Z,4.6
2023-03-26T12:58:13.746Z,4.7
2023-03-26T12:59:14.515Z,4.7
2023-03-26T13:00:15.219Z,4.7
2023-03-26T13:01:15.637Z,4.7
2023-03-26T13:02:16.487Z,4.7
2023-03-26T13:03:16.928Z,4.7
2023-03-26T13:04:17.385Z,4.7
2023-03-26T13:05:17.781Z,4.7
2023-03-26T13:06:18.182Z,4.7
2023-03-26T13:07:18.956Z,4.6
2023-03-26T13:08:19.342Z,4.6
2023-03-26T13:09:19.740Z,4.6
2023-03-26T13:10:20.139Z,4.6
2023-03-26T13:11:20.526Z,4.6
2023-03-26T13:12:21.321Z,4.6
2023-03-26T13:13:21.717Z,4.6
2023-03-26T13:14:22.105Z,4.6
2023-03-26T13:15:23.082Z,4.6
2023-03-26T13:16:23.553Z,4.6
2023-03-26T13:17:24.082Z,4.6
2023-03-26T13:18:24.466Z,4.6
2023-03-26T13:19:24.861Z,4.6
2023-03-26T13:20:25.219Z,4.6
2023-03-26T13:21:25.628Z,4.7
2023-03-26T13:22:26.064Z,4.6
2023-03-26T13:23:26.442Z,4.6
2023-03-26T13:24:26.830Z,4.6
2023-03-26T13:25:27.210Z,4.6
2023-03-26T13:26:27.592Z,4.6
2023-03-26T13:27:27.988Z,4.6
2023-03-26T13:28:28.389Z,4.5
2023-03-26T13:29:28.772Z,4.5
2023-03-26T13:30:29.466Z,4.5
2023-03-26T13:31:29.953Z,4.5
2023-03-26T13:32:30.451Z,4.5
2023-03-26T13:33:30.863Z,4.6
2023-03-26T13:34:31.280Z,4.6
2023-03-26T13:35:31.721Z,4.6
2023-03-26T13:36:32.131Z,4.6
2023-03-26T13:37:32.557Z,4.6
2023-03-26T13:38:33.007Z,4.6
2023-03-26T13:39:33.395Z,4.6
2023-03-26T13:40:33.777Z,4.7
2023-03-26T13:41:34.153Z,4.7
2023-03-26T13:42:34.842Z,4.7
2023-03-26T13:43:35.230Z,4.7
2023-03-26T13:44:35.612Z,4.7
2023-03-26T13:45:36.424Z,4.8
2023-03-26T13:46:36.855Z,4.8
2023-03-26T13:47:37.476Z,4.8
2023-03-26T13:48:37.906Z,4.8
2023-03-26T13:49:38.287Z,4.8
2023-03-26T13:50:38.671Z,4.8
2023-03-26T13:51:39.050Z,4.8
2023-03-26T13:52:39.728Z,4.8
2023-03-26T13:53:40.113Z,4.8
2023-03-26T13:54:40.498Z,4.8
2023-03-26T13:55:40.871Z,4.8
2023-03-26T13:56:43.286Z,4.7
2023-03-26T13:57:44.408Z,4.7
2023-03-26T13:58:44.780Z,4.7
2023-03-26T13:59:45.158Z,4.7
2023-03-26T14:00:45.846Z,4.6
2023-03-26T14:01:46.293Z,4.6
2023-03-26T14:02:47.145Z,4.6
2023-03-26T14:03:47.701Z,4.7
2023-03-26T14:04:48.132Z,4.6
2023-03-26T14:05:48.510Z,4.6
2023-03-26T14:06:48.917Z,4.6
2023-03-26T14:07:49.662Z,4.6